Terminal Aerodrome Forecast
Issued by NWS Wilmington, NC

Home | Current Version | Previous Version | Text Only | Print | Product List | Glossary On
Versions: 1 2 3 4 5 6 7 8 9 10 11 12
805
FTUS42 KILM 030521
TAFLBT
TAF
KLBT 030521Z 0306/0406 32005KT P6SM SCT250
      TEMPO 0310/0314 36009G15KT
     FM031400 36008KT P6SM FEW120 SCT250
     FM040000 04003KT P6SM BKN120=

USA.gov is the U.S. government's official web portal to all federal, state and local government web resources and services.